createdAt,value
2023-01-11T00:01:06.092Z,5.96
2023-01-11T00:03:33.472Z,5.98
2023-01-11T00:06:00.242Z,5.99
2023-01-11T00:08:27.613Z,5.97
2023-01-11T00:10:54.746Z,6.02
2023-01-11T00:13:21.409Z,6.05
2023-01-11T00:15:47.916Z,6.07
2023-01-11T00:18:14.431Z,6.09
2023-01-11T00:20:42.074Z,6.12
2023-01-11T00:23:09.101Z,6.16
2023-01-11T00:25:36.394Z,6.17
2023-01-11T00:28:02.991Z,6.18
2023-01-11T00:30:29.484Z,6.19
2023-01-11T00:32:57.778Z,6.19
2023-01-11T00:35:24.239Z,6.21
2023-01-11T00:37:50.702Z,6.22
2023-01-11T00:40:17.154Z,6.23
2023-01-11T00:43:02.089Z,6.25
2023-01-11T00:45:47.268Z,6.28
2023-01-11T00:48:13.865Z,6.26
2023-01-11T00:50:41.543Z,6.27
2023-01-11T00:53:09.225Z,6.27
2023-01-11T00:55:36.612Z,6.29
2023-01-11T00:58:04.240Z,6.33
2023-01-11T01:00:31.040Z,6.34
2023-01-11T01:02:57.803Z,6.34
2023-01-11T01:05:24.787Z,6.35
2023-01-11T01:07:51.367Z,6.34
2023-01-11T01:10:18.442Z,6.36
2023-01-11T01:13:04.560Z,6.36
2023-01-11T01:15:31.924Z,6.37
2023-01-11T01:17:58.333Z,6.48
2023-01-11T01:20:25.109Z,6.54
2023-01-11T01:22:51.753Z,6.60
2023-01-11T01:25:18.774Z,6.61
2023-01-11T01:27:45.231Z,6.61
2023-01-11T01:30:12.121Z,6.63
2023-01-11T01:32:38.998Z,6.67
2023-01-11T01:35:05.820Z,6.73
2023-01-11T01:37:32.277Z,6.75
2023-01-11T01:39:58.643Z,6.85
2023-01-11T01:42:25.164Z,6.90
2023-01-11T01:45:02.215Z,6.92
2023-01-11T01:47:28.534Z,6.92
2023-01-11T01:49:56.130Z,6.92
2023-01-11T01:52:29.083Z,6.91
2023-01-11T01:54:59.494Z,6.89
2023-01-11T01:57:30.825Z,6.92
2023-01-11T02:00:01.413Z,6.97
2023-01-11T02:02:28.254Z,6.95
2023-01-11T02:04:57.371Z,6.94
2023-01-11T02:07:31.634Z,6.90
2023-01-11T02:10:11.628Z,6.93
2023-01-11T02:12:43.024Z,6.92
2023-01-11T02:15:11.559Z,6.94
2023-01-11T02:17:37.973Z,6.99
2023-01-11T02:20:41.625Z,7.01
2023-01-11T02:23:34.840Z,6.98
2023-01-11T02:26:10.179Z,7.01
2023-01-11T02:28:48.585Z,7.02
2023-01-11T02:31:30.203Z,7.02
2023-01-11T02:34:23.836Z,6.95
2023-01-11T02:36:50.159Z,6.86
2023-01-11T02:39:35.681Z,6.82
2023-01-11T02:42:30.875Z,6.82
2023-01-11T02:45:08.342Z,6.90
2023-01-11T02:47:45.673Z,6.89
2023-01-11T02:50:11.969Z,6.88
2023-01-11T02:53:00.348Z,6.90
2023-01-11T02:55:32.610Z,6.94
2023-01-11T02:58:02.672Z,6.98
2023-01-11T03:00:29.251Z,7.04
2023-01-11T03:03:14.161Z,7.13
2023-01-11T03:05:47.537Z,7.22
2023-01-11T03:08:19.903Z,7.25
2023-01-11T03:11:40.193Z,7.35
2023-01-11T03:14:41.742Z,7.45
2023-01-11T03:17:26.887Z,7.51
2023-01-11T03:19:57.461Z,7.63
2023-01-11T03:22:49.451Z,7.79
2023-01-11T03:25:15.770Z,7.84
2023-01-11T03:27:56.789Z,7.88
2023-01-11T03:30:33.836Z,7.88
2023-01-11T03:33:17.644Z,7.89
2023-01-11T03:36:01.800Z,7.92
2023-01-11T03:38:36.541Z,7.94
2023-01-11T03:41:12.048Z,7.97
2023-01-11T03:43:43.958Z,7.95
2023-01-11T03:46:28.669Z,7.94
2023-01-11T03:49:01.461Z,7.93
2023-01-11T03:51:31.763Z,7.88
2023-01-11T03:54:01.829Z,7.88
2023-01-11T03:57:24.534Z,7.86
2023-01-11T03:59:51.462Z,7.88
2023-01-11T04:02:21.000Z,7.85
2023-01-11T04:04:47.559Z,7.85
2023-01-11T04:07:14.367Z,7.85
2023-01-11T04:09:40.778Z,7.84
2023-01-11T04:12:07.417Z,7.84
2023-01-11T04:14:34.230Z,7.84
2023-01-11T04:17:00.624Z,7.84
2023-01-11T04:19:27.022Z,7.82
2023-01-11T04:21:53.470Z,7.81
2023-01-11T04:24:20.139Z,7.80
2023-01-11T04:26:46.559Z,7.79
2023-01-11T04:29:13.166Z,7.81
2023-01-11T04:31:39.572Z,7.80
2023-01-11T04:34:05.976Z,7.79
2023-01-11T04:36:33.507Z,7.83
2023-01-11T04:39:00.332Z,7.81
2023-01-11T04:41:45.187Z,7.82
2023-01-11T04:44:11.570Z,7.80
2023-01-11T04:46:37.996Z,7.84
2023-01-11T04:49:04.374Z,7.85
2023-01-11T04:51:30.835Z,7.85
2023-01-11T04:53:57.269Z,7.83
2023-01-11T04:56:23.661Z,7.82
2023-01-11T04:58:50.124Z,7.76
2023-01-11T05:01:18.857Z,7.71
2023-01-11T05:03:45.957Z,7.64
2023-01-11T05:06:13.769Z,7.62
2023-01-11T05:08:44.483Z,7.59
2023-01-11T05:11:10.900Z,7.56
2023-01-11T05:13:43.182Z,7.56
2023-01-11T05:16:14.491Z,7.55
2023-01-11T05:18:55.496Z,7.55
2023-01-11T05:21:27.735Z,7.54
2023-01-11T05:23:54.570Z,7.54
2023-01-11T05:26:27.882Z,7.53
2023-01-11T05:28:56.478Z,7.51
2023-01-11T05:31:23.387Z,7.48
2023-01-11T05:33:49.853Z,7.43
2023-01-11T05:36:21.548Z,7.42
2023-01-11T05:38:50.098Z,7.44
2023-01-11T05:41:18.629Z,7.44
2023-01-11T05:44:05.383Z,7.42
2023-01-11T05:46:33.474Z,7.45
2023-01-11T05:49:01.624Z,7.49
2023-01-11T05:51:35.386Z,7.50
2023-01-11T05:54:03.543Z,7.48
2023-01-11T05:56:30.305Z,7.48
2023-01-11T05:58:57.942Z,7.51
2023-01-11T06:01:25.158Z,7.48
2023-01-11T06:03:52.031Z,7.44
2023-01-11T06:06:20.121Z,7.37
2023-01-11T06:08:46.695Z,7.34
2023-01-11T06:11:14.562Z,7.28
2023-01-11T06:13:41.375Z,7.26
2023-01-11T06:16:11.202Z,7.25
2023-01-11T06:18:39.984Z,7.25
2023-01-11T06:21:07.198Z,7.23
2023-01-11T06:23:36.614Z,7.21
2023-01-11T06:26:08.939Z,7.19
2023-01-11T06:28:35.924Z,7.18
2023-01-11T06:31:03.221Z,7.24
2023-01-11T06:33:30.076Z,7.28
2023-01-11T06:35:57.355Z,7.33
2023-01-11T06:38:25.510Z,7.36
2023-01-11T06:40:57.511Z,7.40
2023-01-11T06:43:25.165Z,7.39
2023-01-11T06:45:52.197Z,7.36
2023-01-11T06:48:19.955Z,7.37
2023-01-11T06:50:58.147Z,7.38
2023-01-11T06:53:28.441Z,7.40
2023-01-11T06:55:56.930Z,7.37
2023-01-11T06:58:24.683Z,7.33
2023-01-11T07:00:52.793Z,7.32
2023-01-11T07:03:25.366Z,7.33
2023-01-11T07:05:57.135Z,7.33
2023-01-11T07:08:34.999Z,7.34
2023-01-11T07:11:01.507Z,7.29
2023-01-11T07:13:28.272Z,7.28
2023-01-11T07:15:57.695Z,7.30
2023-01-11T07:18:24.262Z,7.28
2023-01-11T07:20:51.278Z,7.25
2023-01-11T07:23:17.831Z,7.30
2023-01-11T07:25:46.641Z,7.33
2023-01-11T07:28:13.205Z,7.35
2023-01-11T07:30:56.716Z,7.38
2023-01-11T07:33:25.181Z,7.38
2023-01-11T07:35:51.805Z,7.49
2023-01-11T07:38:19.188Z,7.51
2023-01-11T07:40:45.795Z,7.54
2023-01-11T07:43:18.254Z,7.56
2023-01-11T07:45:49.224Z,7.58
2023-01-11T07:48:24.506Z,7.61
2023-01-11T07:50:52.485Z,7.58
2023-01-11T07:53:19.359Z,7.59
2023-01-11T07:55:45.773Z,7.67
2023-01-11T07:58:13.354Z,7.72
2023-01-11T08:00:43.379Z,7.76
2023-01-11T08:03:10.202Z,7.85
2023-01-11T08:05:37.324Z,7.88
2023-01-11T08:08:05.938Z,7.93
2023-01-11T08:10:33.075Z,7.99
2023-01-11T08:13:18.218Z,8.01
2023-01-11T08:15:44.924Z,8.05
2023-01-11T08:18:12.788Z,8.06
2023-01-11T08:20:39.854Z,8.11
2023-01-11T08:23:10.110Z,8.17
2023-01-11T08:25:37.635Z,8.19
2023-01-11T08:28:06.595Z,8.25
2023-01-11T08:30:33.725Z,8.29
2023-01-11T08:33:01.799Z,8.36
2023-01-11T08:35:29.091Z,8.43
2023-01-11T08:37:55.637Z,8.45
2023-01-11T08:40:24.058Z,8.44
2023-01-11T08:42:56.657Z,8.55
2023-01-11T08:45:23.355Z,8.52
2023-01-11T08:47:52.762Z,8.57
2023-01-11T08:50:21.242Z,8.53
2023-01-11T08:52:50.739Z,8.48
2023-01-11T08:55:17.992Z,8.48
2023-01-11T08:57:45.039Z,8.49
2023-01-11T09:00:12.057Z,8.45
2023-01-11T09:02:38.910Z,8.45
2023-01-11T09:05:05.933Z,8.50
2023-01-11T09:07:33.297Z,8.46
2023-01-11T09:09:59.774Z,8.50
2023-01-11T09:12:28.966Z,8.50
2023-01-11T09:14:55.555Z,8.49
2023-01-11T09:17:22.197Z,8.51
2023-01-11T09:19:48.764Z,8.53
2023-01-11T09:22:15.854Z,8.52
2023-01-11T09:24:42.367Z,8.57
2023-01-11T09:27:09.152Z,8.51
2023-01-11T09:29:37.382Z,8.57
2023-01-11T09:32:04.913Z,8.66
2023-01-11T09:34:31.733Z,8.71
2023-01-11T09:37:00.573Z,8.76
2023-01-11T09:39:29.831Z,8.79
2023-01-11T09:42:15.395Z,8.82
2023-01-11T09:44:51.334Z,8.83
2023-01-11T09:47:28.075Z,8.82
2023-01-11T09:49:58.565Z,8.84
2023-01-11T09:52:39.727Z,8.83
2023-01-11T09:55:12.685Z,8.83
2023-01-11T09:57:42.372Z,8.86
2023-01-11T10:00:18.280Z,8.88
2023-01-11T10:03:12.883Z,8.91
2023-01-11T10:06:06.101Z,8.97
2023-01-11T10:18:28.359Z,9.04
2023-01-11T10:18:38.577Z,9.05
2023-01-11T10:21:16.864Z,9.10
2023-01-11T10:23:56.190Z,9.08
2023-01-11T10:26:29.124Z,9.17
2023-01-11T10:29:35.145Z,9.17
2023-01-11T10:32:02.785Z,9.18
2023-01-11T10:34:59.749Z,9.21
2023-01-11T10:37:55.997Z,9.24
2023-01-11T10:40:37.615Z,9.35
2023-01-11T10:43:13.190Z,9.41
2023-01-11T10:45:44.401Z,9.45
2023-01-11T10:48:19.927Z,9.53
2023-01-11T10:51:12.985Z,9.60
2023-01-11T10:54:01.253Z,9.67
2023-01-11T10:57:02.366Z,9.79
2023-01-11T11:00:02.135Z,9.85
2023-01-11T11:02:41.025Z,9.90
2023-01-11T11:05:30.613Z,9.92
2023-01-11T11:08:18.822Z,9.84
2023-01-11T11:10:49.667Z,9.89
2023-01-11T11:13:43.614Z,9.88
2023-01-11T11:16:22.333Z,9.89
2023-01-11T11:18:54.426Z,9.93
2023-01-11T11:21:29.529Z,9.92
2023-01-11T11:24:02.901Z,9.96
2023-01-11T11:26:38.230Z,9.97
2023-01-11T11:29:11.103Z,10.05
2023-01-11T11:31:43.819Z,9.96
2023-01-11T11:34:17.666Z,9.96
2023-01-11T11:36:51.876Z,9.98
2023-01-11T11:39:22.212Z,10.02
2023-01-11T11:42:06.844Z,10.04
2023-01-11T11:44:34.186Z,10.02
2023-01-11T11:47:14.795Z,10.07
2023-01-11T11:49:42.197Z,10.17
2023-01-11T11:52:15.000Z,10.18
2023-01-11T11:54:56.765Z,10.20
2023-01-11T11:57:35.233Z,10.25
2023-01-11T12:00:25.475Z,10.18
2023-01-11T12:03:02.806Z,10.18
2023-01-11T12:05:32.318Z,10.14
2023-01-11T12:08:01.902Z,10.12
2023-01-11T12:10:30.739Z,10.11
2023-01-11T12:13:02.911Z,10.08
2023-01-11T12:15:34.492Z,10.04
2023-01-11T12:18:25.175Z,10.04
2023-01-11T12:20:52.240Z,10.06
2023-01-11T12:23:22.158Z,10.06
2023-01-11T12:26:05.954Z,10.05
2023-01-11T12:29:08.218Z,10.04
2023-01-11T12:31:34.636Z,10.04
2023-01-11T12:34:20.783Z,10.06
2023-01-11T12:37:15.712Z,10.07
2023-01-11T12:39:45.234Z,10.05
2023-01-11T12:42:36.875Z,10.08
2023-01-11T12:45:09.459Z,10.12
2023-01-11T12:47:43.954Z,10.19
2023-01-11T12:50:35.016Z,10.19
2023-01-11T12:53:07.880Z,10.22
2023-01-11T12:56:01.047Z,10.24
2023-01-11T12:58:55.236Z,10.26
2023-01-11T13:02:00.312Z,10.26
2023-01-11T13:04:45.573Z,10.22
2023-01-11T13:07:34.206Z,10.18
2023-01-11T13:10:21.136Z,10.12
2023-01-11T13:13:21.846Z,10.09
2023-01-11T13:18:59.021Z,10.02
2023-01-11T13:21:43.333Z,10.02
2023-01-11T13:24:19.897Z,10.03
2023-01-11T13:26:50.667Z,10.05
2023-01-11T13:29:27.916Z,10.07
2023-01-11T13:31:59.168Z,10.05
2023-01-11T13:35:04.871Z,10.01
2023-01-11T13:37:40.135Z,10.01
2023-01-11T13:40:20.412Z,9.97
2023-01-11T13:42:54.867Z,9.93
2023-01-11T13:45:30.249Z,9.94
2023-01-11T13:48:02.254Z,9.94
2023-01-11T13:50:36.357Z,9.92
2023-01-11T13:53:22.545Z,9.91
2023-01-11T13:55:51.631Z,9.89
2023-01-11T13:58:30.582Z,9.88
2023-01-11T14:01:03.189Z,9.85
2023-01-11T14:03:37.042Z,9.82
2023-01-11T14:06:26.707Z,9.81
2023-01-11T14:09:05.513Z,9.76
2023-01-11T14:11:54.845Z,9.76
2023-01-11T14:14:40.127Z,9.76
2023-01-11T14:17:42.879Z,9.74
2023-01-11T14:20:46.178Z,9.71
2023-01-11T14:23:13.983Z,9.70
2023-01-11T14:26:02.833Z,9.71
2023-01-11T14:28:44.664Z,9.71
2023-01-11T14:31:32.473Z,9.71
2023-01-11T14:34:05.046Z,9.72
2023-01-11T14:36:48.425Z,9.71
2023-01-11T14:39:40.437Z,9.69
2023-01-11T14:42:30.444Z,9.66
2023-01-11T14:45:28.307Z,9.62
2023-01-11T14:48:19.318Z,9.59
2023-01-11T14:51:32.447Z,9.56
2023-01-11T14:54:20.654Z,9.53
2023-01-11T14:56:51.104Z,9.54
2023-01-11T14:59:39.969Z,9.51
2023-01-11T15:02:06.726Z,9.52
2023-01-11T15:04:35.331Z,9.53
2023-01-11T15:07:21.057Z,9.51
2023-01-11T15:09:50.113Z,9.51
2023-01-11T15:12:33.957Z,9.52
2023-01-11T15:15:12.549Z,9.51
2023-01-11T15:17:59.102Z,9.50
2023-01-11T15:20:27.965Z,9.47
2023-01-11T15:23:02.534Z,9.45
2023-01-11T15:25:34.632Z,9.43
2023-01-11T15:28:05.441Z,9.41
2023-01-11T15:30:31.876Z,9.39
2023-01-11T15:33:45.669Z,9.34
2023-01-11T15:36:12.256Z,9.31
2023-01-11T15:38:52.587Z,9.28
2023-01-11T15:41:53.137Z,9.30
2023-01-11T15:44:54.597Z,9.30
2023-01-11T15:47:36.287Z,9.28
2023-01-11T15:50:31.701Z,9.27
2023-01-11T15:53:16.701Z,9.29
2023-01-11T15:56:18.503Z,9.29
2023-01-11T15:59:08.686Z,9.27
2023-01-11T16:01:55.058Z,9.27
2023-01-11T16:05:01.117Z,9.26
2023-01-11T16:07:56.582Z,9.24
2023-01-11T16:10:51.500Z,9.19
2023-01-11T16:13:39.657Z,9.12
2023-01-11T16:16:21.307Z,9.10
2023-01-11T16:18:57.783Z,9.07
2023-01-11T16:21:29.777Z,9.00
2023-01-11T16:23:56.639Z,8.97
2023-01-11T16:26:23.383Z,9.00
2023-01-11T16:28:57.181Z,9.10
2023-01-11T16:31:25.194Z,9.11
2023-01-11T16:33:53.252Z,9.13
2023-01-11T16:36:22.092Z,9.15
2023-01-11T16:39:06.629Z,9.14
2023-01-11T16:42:10.633Z,9.13
2023-01-11T16:44:45.946Z,9.09
2023-01-11T16:47:20.577Z,9.06
2023-01-11T16:49:49.726Z,9.04
2023-01-11T16:52:28.201Z,8.99
2023-01-11T16:54:57.073Z,8.99
2023-01-11T16:57:30.441Z,9.00
2023-01-11T17:00:18.568Z,9.00
2023-01-11T17:02:48.773Z,8.95
2023-01-11T17:05:23.689Z,8.93
2023-01-11T17:07:50.194Z,8.94
2023-01-11T17:10:25.647Z,8.94
2023-01-11T17:13:40.133Z,8.91
2023-01-11T17:16:10.477Z,8.90
2023-01-11T17:18:41.467Z,8.90
2023-01-11T17:21:27.404Z,8.89
2023-01-11T17:23:58.722Z,8.83
2023-01-11T17:26:32.751Z,8.78
2023-01-11T17:29:00.379Z,8.72
2023-01-11T17:31:31.788Z,8.66
2023-01-11T17:34:05.777Z,8.63
2023-01-11T17:36:33.036Z,8.61
2023-01-11T17:38:59.961Z,8.57
2023-01-11T17:41:46.895Z,8.56
2023-01-11T17:44:41.703Z,8.59
2023-01-11T17:47:12.558Z,8.64
2023-01-11T17:49:39.532Z,8.64
2023-01-11T17:52:20.985Z,8.66
2023-01-11T17:54:58.725Z,8.66
2023-01-11T17:57:25.313Z,8.64
2023-01-11T18:00:28.593Z,8.61
2023-01-11T18:02:55.847Z,8.55
2023-01-11T18:05:27.169Z,8.43
2023-01-11T18:07:57.536Z,8.35
2023-01-11T18:10:27.240Z,8.25
2023-01-11T18:12:56.229Z,8.12
2023-01-11T18:15:33.525Z,8.01
2023-01-11T18:18:01.211Z,7.94
2023-01-11T18:20:35.140Z,7.90
2023-01-11T18:23:10.683Z,7.85
2023-01-11T18:25:37.709Z,7.81
2023-01-11T18:28:21.949Z,7.76
2023-01-11T18:30:53.605Z,7.73
2023-01-11T18:33:23.021Z,7.66
2023-01-11T18:35:52.518Z,7.62
2023-01-11T18:38:25.227Z,7.60
2023-01-11T18:40:53.441Z,7.58
2023-01-11T18:43:26.122Z,7.55
2023-01-11T18:45:52.948Z,7.53
2023-01-11T18:48:21.855Z,7.50
2023-01-11T18:50:51.107Z,7.47
2023-01-11T18:53:18.349Z,7.43
2023-01-11T18:55:45.949Z,7.44
2023-01-11T18:58:12.424Z,7.46
2023-01-11T19:00:40.981Z,7.42
2023-01-11T19:03:10.308Z,7.38
2023-01-11T19:05:36.774Z,7.36
2023-01-11T19:08:03.192Z,7.33
2023-01-11T19:10:29.665Z,7.31
2023-01-11T19:12:57.349Z,7.29
2023-01-11T19:15:24.056Z,7.33
2023-01-11T19:17:50.400Z,7.38
2023-01-11T19:20:16.814Z,7.32
2023-01-11T19:22:43.248Z,7.26
2023-01-11T19:25:09.957Z,7.22
2023-01-11T19:27:37.877Z,7.16
2023-01-11T19:30:06.073Z,7.09
2023-01-11T19:32:32.714Z,7.05
2023-01-11T19:34:59.563Z,7.03
2023-01-11T19:37:27.583Z,7.06
2023-01-11T19:39:54.057Z,7.13
2023-01-11T19:42:21.011Z,7.16
2023-01-11T19:44:47.443Z,7.16
2023-01-11T19:47:16.899Z,7.19
2023-01-11T19:49:43.705Z,7.28
2023-01-11T19:52:14.450Z,7.32
2023-01-11T19:54:42.555Z,7.32
2023-01-11T19:57:14.270Z,7.31
2023-01-11T19:59:41.497Z,7.32
2023-01-11T20:02:09.668Z,7.34
2023-01-11T20:04:37.147Z,7.30
2023-01-11T20:07:03.742Z,7.28
2023-01-11T20:09:30.291Z,7.21
2023-01-11T20:11:58.688Z,7.19
2023-01-11T20:14:25.511Z,7.19
2023-01-11T20:16:51.945Z,7.18
2023-01-11T20:19:18.387Z,7.12
2023-01-11T20:21:45.019Z,7.03
2023-01-11T20:24:12.995Z,7.03
2023-01-11T20:26:39.882Z,7.01
2023-01-11T20:29:07.138Z,6.97
2023-01-11T20:31:35.527Z,6.87
2023-01-11T20:34:10.400Z,6.77
2023-01-11T20:36:37.358Z,6.71
2023-01-11T20:39:04.842Z,6.65
2023-01-11T20:41:50.046Z,6.64
2023-01-11T20:44:31.968Z,6.62
2023-01-11T20:46:59.517Z,6.59
2023-01-11T20:49:29.135Z,6.54
2023-01-11T20:51:56.374Z,6.47
2023-01-11T20:54:22.946Z,6.43
2023-01-11T20:56:49.560Z,6.39
2023-01-11T20:59:19.600Z,6.36
2023-01-11T21:01:47.436Z,6.34
2023-01-11T21:04:14.494Z,6.35
2023-01-11T21:06:43.515Z,6.38
2023-01-11T21:09:12.679Z,6.39
2023-01-11T21:11:40.199Z,6.37
2023-01-11T21:14:12.000Z,6.33
2023-01-11T21:16:44.255Z,6.28
2023-01-11T21:19:12.929Z,6.25
2023-01-11T21:21:40.023Z,6.23
2023-01-11T21:24:07.115Z,6.21
2023-01-11T21:26:34.835Z,6.24
2023-01-11T21:29:04.350Z,6.23
2023-01-11T21:31:33.620Z,6.24
2023-01-11T21:34:00.828Z,6.23
2023-01-11T21:36:34.316Z,6.20
2023-01-11T21:39:02.402Z,6.18
2023-01-11T21:41:48.940Z,6.18
2023-01-11T21:44:16.432Z,6.14
2023-01-11T21:46:43.648Z,6.09
2023-01-11T21:49:11.063Z,6.07
2023-01-11T21:51:38.238Z,6.04
2023-01-11T21:54:07.267Z,6.04
2023-01-11T21:56:34.176Z,6.06
2023-01-11T21:59:00.662Z,6.06
2023-01-11T22:01:27.526Z,6.08
2023-01-11T22:03:54.166Z,6.05
2023-01-11T22:06:20.755Z,6.05
2023-01-11T22:08:47.603Z,6.05
2023-01-11T22:11:16.031Z,6.11
2023-01-11T22:13:43.171Z,6.13
2023-01-11T22:16:14.725Z,6.13
2023-01-11T22:18:42.075Z,6.18
2023-01-11T22:21:14.223Z,6.23
2023-01-11T22:23:41.397Z,6.27
2023-01-11T22:26:13.408Z,6.34
2023-01-11T22:28:58.955Z,6.36
2023-01-11T22:31:27.528Z,6.37
2023-01-11T22:33:54.834Z,6.37
2023-01-11T22:36:23.491Z,6.33
2023-01-11T22:38:50.076Z,6.28
2023-01-11T22:41:16.957Z,6.25
2023-01-11T22:43:44.060Z,6.23
2023-01-11T22:46:19.499Z,6.22
2023-01-11T22:48:48.320Z,6.20
2023-01-11T22:51:16.821Z,6.16
2023-01-11T22:53:45.186Z,6.15
2023-01-11T22:56:13.077Z,6.11
2023-01-11T22:58:39.491Z,6.05
2023-01-11T23:01:12.006Z,6.03
2023-01-11T23:03:39.212Z,6.00
2023-01-11T23:06:05.774Z,6.00
2023-01-11T23:08:40.796Z,5.97
2023-01-11T23:11:13.820Z,5.92
2023-01-11T23:13:54.820Z,5.92
2023-01-11T23:16:22.253Z,5.90
2023-01-11T23:18:48.735Z,5.89
2023-01-11T23:21:16.823Z,5.90
2023-01-11T23:23:43.426Z,5.90
2023-01-11T23:26:11.848Z,5.89
2023-01-11T23:28:39.214Z,5.93
2023-01-11T23:31:17.709Z,5.94
2023-01-11T23:33:46.010Z,5.94
2023-01-11T23:36:13.172Z,5.91
2023-01-11T23:38:39.594Z,5.89
2023-01-11T23:41:27.076Z,5.86
2023-01-11T23:43:53.516Z,5.83
2023-01-11T23:46:39.163Z,5.80
2023-01-11T23:49:07.345Z,5.80
2023-01-11T23:51:34.887Z,5.83
2023-01-11T23:54:03.114Z,5.88
2023-01-11T23:56:30.835Z,5.89
2023-01-11T23:58:57.651Z,5.90
